Details for Norwegian Air International at EGKK




Go Back


Latest METAR
Local Time

EGKK 181320Z 22012KT 9999 BKN026 21/14 Q1011
18/09/2018, 14:49:26

Description
Results
Norwegian Air International Logo
Number of Pilots based at EGKK
6 Pilots Based here
Number of Norwegian Air International Flights Departed from EGKK
15 Flights Departed
Number of Norwegian Air International Flights Arrived at EGKK
11 Flights Arrived
Number of Norwegian Air International Schedules Departing from EGKK
71 Schedules
Number of Norwegian Air International Schedules Arriving at EGKK
67 Schedules
Number of Norwegian Air International Schedules Departing from EGKK availible today
24 Schedules Today
Number of Norwegian Air International Schedules Arriving at EGKK availible today
24 Schedules Today
Average Landing Rate at EGKK
-229 fpm
Norwegian Air International Average Landing Rate at EGKK
-207 fpm
Total Fuel Purchased at EGKK by Norwegian Air International
93,129.77 kgs / 205,313.89 lbs

Pilots Based at EGKK


Pilot ID
Pilot Name
Pilot Rank
No. of Flights
No. of Flying Hours
Dan Symons
114
437.51
George Jones
35
95.53
Maurice Lyon
175
825.49
Matthew Smith
93
700.29
William Shaw
180
430.37
Jim Donne
0
0
Content